createdAt,value
2016-11-28T00:00:55.870Z,0
2016-11-28T00:02:06.853Z,0
2016-11-28T00:03:17.836Z,0
2016-11-28T00:04:28.817Z,0
2016-11-28T00:05:39.991Z,0
2016-11-28T00:06:50.978Z,0
2016-11-28T00:08:01.959Z,0
2016-11-28T00:09:12.946Z,0
2016-11-28T00:10:23.977Z,0
2016-11-28T00:11:34.968Z,0
2016-11-28T00:12:45.955Z,0
2016-11-28T00:13:56.932Z,0
2016-11-28T00:15:08.314Z,0
2016-11-28T00:16:19.294Z,0
2016-11-28T00:17:30.472Z,0
2016-11-28T00:18:41.660Z,0
2016-11-28T00:19:52.637Z,0
2016-11-28T00:21:03.864Z,0
2016-11-28T00:22:14.852Z,0
2016-11-28T00:23:26.029Z,0
2016-11-28T00:24:37.012Z,0
2016-11-28T00:25:47.992Z,0
2016-11-28T00:26:58.972Z,0
2016-11-28T00:28:09.956Z,0
2016-11-28T00:29:21.151Z,0
2016-11-28T00:30:32.337Z,0
2016-11-28T00:31:43.324Z,0
2016-11-28T00:32:54.304Z,0
2016-11-28T00:34:05.322Z,0
2016-11-28T00:35:16.312Z,0
2016-11-28T00:36:27.296Z,0
2016-11-28T00:37:38.491Z,0
2016-11-28T00:38:49.477Z,0
2016-11-28T00:40:00.662Z,0
2016-11-28T00:41:11.928Z,0
2016-11-28T00:42:22.906Z,0
2016-11-28T00:43:33.888Z,0
2016-11-28T00:44:44.871Z,0
2016-11-28T00:45:55.848Z,0
2016-11-28T00:47:06.876Z,0
2016-11-28T00:48:18.066Z,0
2016-11-28T00:49:29.256Z,0
2016-11-28T00:50:40.244Z,0
2016-11-28T00:51:51.229Z,0
2016-11-28T00:53:02.260Z,0
2016-11-28T00:54:13.237Z,0
2016-11-28T00:55:24.218Z,0
2016-11-28T00:56:35.197Z,0
2016-11-28T00:57:46.179Z,0
2016-11-28T00:58:57.213Z,0
2016-11-28T01:00:08.188Z,0
2016-11-28T01:01:19.168Z,0
2016-11-28T01:02:30.159Z,0
2016-11-28T01:03:41.143Z,0
2016-11-28T01:04:52.204Z,0
2016-11-28T01:06:03.410Z,0
2016-11-28T01:07:14.405Z,0
2016-11-28T01:08:25.383Z,0
2016-11-28T01:09:36.567Z,0
2016-11-28T01:10:47.547Z,0
2016-11-28T01:11:58.527Z,0
2016-11-28T01:13:09.517Z,0
2016-11-28T01:14:20.532Z,0
2016-11-28T01:15:31.516Z,0
2016-11-28T01:16:42.544Z,0
2016-11-28T01:17:53.517Z,0
2016-11-28T01:19:04.522Z,0
2016-11-28T01:20:15.556Z,0
2016-11-28T01:21:26.535Z,0
2016-11-28T01:22:37.515Z,0
2016-11-28T01:23:48.500Z,0
2016-11-28T01:24:59.485Z,0
2016-11-28T01:26:10.742Z,0
2016-11-28T01:27:21.724Z,0
2016-11-28T01:28:32.711Z,0
2016-11-28T01:29:43.688Z,0
2016-11-28T01:30:54.666Z,0
2016-11-28T01:32:05.698Z,0
2016-11-28T01:33:16.681Z,0
2016-11-28T01:34:27.859Z,0
2016-11-28T01:35:38.850Z,0
2016-11-28T01:36:49.833Z,0
2016-11-28T01:38:01.071Z,0
2016-11-28T01:39:12.049Z,0
2016-11-28T01:40:23.230Z,0
2016-11-28T01:41:34.211Z,0
2016-11-28T01:42:45.391Z,0
2016-11-28T01:43:56.633Z,0
2016-11-28T01:45:07.611Z,0
2016-11-28T01:46:18.590Z,0
2016-11-28T01:47:29.578Z,0
2016-11-28T01:48:40.560Z,0
2016-11-28T01:49:51.591Z,0
2016-11-28T01:51:02.563Z,0
2016-11-28T01:52:13.569Z,0
2016-11-28T01:53:24.561Z,0
2016-11-28T01:54:35.543Z,0
2016-11-28T01:55:46.528Z,0
2016-11-28T01:56:57.712Z,0
2016-11-28T01:58:08.695Z,0
2016-11-28T01:59:19.879Z,0
2016-11-28T02:00:30.854Z,0
2016-11-28T02:01:41.843Z,0
2016-11-28T02:02:52.827Z,0
2016-11-28T02:04:03.834Z,0
2016-11-28T02:05:14.819Z,0
2016-11-28T02:06:25.810Z,0
2016-11-28T02:07:36.779Z,0
2016-11-28T02:08:47.758Z,0
2016-11-28T02:09:58.741Z,0
2016-11-28T02:11:09.742Z,0
2016-11-28T02:12:20.728Z,0
2016-11-28T02:13:31.707Z,0
2016-11-28T02:14:42.694Z,0
2016-11-28T02:15:53.901Z,0
2016-11-28T02:17:05.080Z,0
2016-11-28T02:18:16.056Z,0
2016-11-28T02:19:27.235Z,0
2016-11-28T02:20:38.220Z,0
2016-11-28T02:21:49.205Z,0
2016-11-28T02:23:00.181Z,0
2016-11-28T02:24:11.163Z,0
2016-11-28T02:25:22.162Z,0
2016-11-28T02:26:33.346Z,0
2016-11-28T02:27:44.324Z,0
2016-11-28T02:28:55.304Z,0
2016-11-28T02:30:06.286Z,0
2016-11-28T02:31:17.462Z,0
2016-11-28T02:32:28.454Z,0
2016-11-28T02:33:39.639Z,0
2016-11-28T02:34:50.620Z,0
2016-11-28T02:36:01.598Z,0
2016-11-28T02:37:12.585Z,0
2016-11-28T02:38:23.563Z,0
2016-11-28T02:39:34.739Z,0
2016-11-28T02:40:45.717Z,0
2016-11-28T02:41:56.712Z,0
2016-11-28T02:43:07.689Z,0
2016-11-28T02:44:18.877Z,0
2016-11-28T02:45:30.059Z,0
2016-11-28T02:46:41.055Z,0
2016-11-28T02:47:52.034Z,0
2016-11-28T02:49:03.217Z,0
2016-11-28T02:50:14.246Z,0
2016-11-28T02:51:25.474Z,0
2016-11-28T02:52:36.456Z,0
2016-11-28T02:53:47.466Z,0
2016-11-28T02:54:58.640Z,0
2016-11-28T02:56:09.634Z,0
2016-11-28T02:57:20.617Z,0
2016-11-28T02:58:31.596Z,0
2016-11-28T02:59:42.609Z,0
2016-11-28T03:00:53.589Z,0
2016-11-28T03:02:04.573Z,0
2016-11-28T03:03:15.558Z,0
2016-11-28T03:04:26.533Z,0
2016-11-28T03:05:37.528Z,0
2016-11-28T03:06:48.501Z,0
2016-11-28T03:07:59.487Z,0
2016-11-28T03:09:10.473Z,0
2016-11-28T03:10:21.459Z,0
2016-11-28T03:11:32.646Z,0
2016-11-28T03:12:43.626Z,0
2016-11-28T03:13:54.606Z,0
2016-11-28T03:15:05.590Z,0
2016-11-28T03:16:16.573Z,0
2016-11-28T03:17:27.593Z,0
2016-11-28T03:18:38.601Z,0
2016-11-28T03:19:49.585Z,0
2016-11-28T03:21:00.576Z,0
2016-11-28T03:22:11.562Z,0
2016-11-28T03:23:22.537Z,0
2016-11-28T03:24:33.719Z,0
2016-11-28T03:25:44.717Z,0
2016-11-28T03:26:55.701Z,0
2016-11-28T03:28:06.672Z,0
2016-11-28T03:29:17.657Z,0
2016-11-28T03:30:28.692Z,0
2016-11-28T03:31:39.873Z,0
2016-11-28T03:32:50.853Z,0
2016-11-28T03:34:01.831Z,0
2016-11-28T03:35:13.021Z,0
2016-11-28T03:36:24.002Z,0
2016-11-28T03:37:34.982Z,0
2016-11-28T03:38:45.964Z,0
2016-11-28T03:39:56.952Z,0
2016-11-28T03:41:08.133Z,0
2016-11-28T03:42:19.113Z,0
2016-11-28T03:43:30.306Z,0
2016-11-28T03:44:41.302Z,0
2016-11-28T03:45:52.320Z,0
2016-11-28T03:47:03.317Z,0
2016-11-28T03:48:14.304Z,0
2016-11-28T03:49:25.292Z,0
2016-11-28T03:50:36.303Z,0
2016-11-28T03:51:47.686Z,0
2016-11-28T03:52:58.864Z,0
2016-11-28T03:54:09.847Z,0
2016-11-28T03:55:21.038Z,0
2016-11-28T03:56:32.016Z,0
2016-11-28T03:57:43.009Z,0
2016-11-28T03:58:53.990Z,0
2016-11-28T04:00:05.216Z,0
2016-11-28T04:01:16.205Z,0
2016-11-28T04:02:27.208Z,0
2016-11-28T04:03:38.217Z,0
2016-11-28T04:04:49.602Z,0
2016-11-28T04:06:00.586Z,0
2016-11-28T04:07:11.570Z,0
2016-11-28T04:08:22.752Z,0
2016-11-28T04:09:33.745Z,0
2016-11-28T04:10:44.931Z,0
2016-11-28T04:11:55.914Z,0
2016-11-28T04:13:06.896Z,0
2016-11-28T04:14:17.893Z,0
2016-11-28T04:15:28.882Z,0
2016-11-28T04:16:40.067Z,0
2016-11-28T04:17:51.048Z,0
2016-11-28T04:19:02.031Z,0
2016-11-28T04:20:13.020Z,0
2016-11-28T04:21:24.004Z,0
2016-11-28T04:22:34.987Z,0
2016-11-28T04:23:45.964Z,0
2016-11-28T04:24:56.949Z,0
2016-11-28T04:26:07.927Z,0
2016-11-28T04:27:18.911Z,0
2016-11-28T04:28:29.890Z,0
2016-11-28T04:29:40.879Z,0
2016-11-28T04:30:52.058Z,0
2016-11-28T04:32:03.070Z,0
2016-11-28T04:33:14.058Z,0
2016-11-28T04:34:25.045Z,0
2016-11-28T04:35:36.020Z,0
2016-11-28T04:36:46.997Z,0
2016-11-28T04:37:58.177Z,0
2016-11-28T04:39:09.367Z,0
2016-11-28T04:40:20.351Z,0
2016-11-28T04:41:31.335Z,0
2016-11-28T04:42:42.319Z,0
2016-11-28T04:43:53.294Z,0
2016-11-28T04:45:04.277Z,0
2016-11-28T04:46:15.262Z,0
2016-11-28T04:47:26.443Z,0
2016-11-28T04:48:37.450Z,0
2016-11-28T04:49:48.436Z,0
2016-11-28T04:50:59.626Z,0
2016-11-28T04:52:10.612Z,0
2016-11-28T04:53:21.597Z,0
2016-11-28T04:54:32.578Z,0
2016-11-28T04:55:43.557Z,0
2016-11-28T04:56:54.533Z,0
2016-11-28T04:58:05.517Z,0
2016-11-28T04:59:16.501Z,0
2016-11-28T05:00:27.482Z,0
2016-11-28T05:01:38.497Z,0
2016-11-28T05:02:49.510Z,0
2016-11-28T05:04:00.710Z,0
2016-11-28T05:05:11.747Z,0
2016-11-28T05:06:22.938Z,0
2016-11-28T05:07:33.930Z,0
2016-11-28T05:08:44.915Z,0
2016-11-28T05:09:55.898Z,0
2016-11-28T05:11:06.879Z,0
2016-11-28T05:12:17.854Z,0
2016-11-28T05:13:29.035Z,0
2016-11-28T05:14:40.017Z,0
2016-11-28T05:15:51.201Z,0
2016-11-28T05:17:02.184Z,0
2016-11-28T05:18:13.174Z,0
2016-11-28T05:19:24.158Z,0
2016-11-28T05:20:35.142Z,0
2016-11-28T05:21:46.119Z,0
2016-11-28T05:22:57.102Z,0
2016-11-28T05:24:08.281Z,0
2016-11-28T05:25:19.272Z,0
2016-11-28T05:26:30.252Z,0
2016-11-28T05:27:41.228Z,0
2016-11-28T05:28:52.208Z,0
2016-11-28T05:30:03.194Z,0
2016-11-28T05:31:14.172Z,0
2016-11-28T05:32:25.354Z,0
2016-11-28T05:33:36.325Z,0
2016-11-28T05:34:47.304Z,0
2016-11-28T05:35:58.284Z,0
2016-11-28T05:37:09.262Z,0
2016-11-28T05:38:20.254Z,0
2016-11-28T05:39:31.235Z,0
2016-11-28T05:40:42.445Z,0
2016-11-28T05:41:53.429Z,0
2016-11-28T05:43:04.405Z,0
2016-11-28T05:44:15.387Z,0
2016-11-28T05:45:26.663Z,0
2016-11-28T05:46:37.638Z,0
2016-11-28T05:47:48.624Z,0
2016-11-28T05:48:59.809Z,0
2016-11-28T05:50:10.789Z,0
2016-11-28T05:51:21.774Z,0
2016-11-28T05:52:32.801Z,0
2016-11-28T05:53:43.789Z,0
2016-11-28T05:54:54.973Z,0
2016-11-28T05:56:05.964Z,0
2016-11-28T05:57:17.172Z,0
2016-11-28T05:58:28.148Z,0
2016-11-28T05:59:39.127Z,0
2016-11-28T06:00:50.104Z,0
2016-11-28T06:02:01.081Z,0
2016-11-28T06:03:12.062Z,0
2016-11-28T06:04:23.038Z,0
2016-11-28T06:05:34.218Z,0
2016-11-28T06:06:45.405Z,0
2016-11-28T06:07:56.404Z,0
2016-11-28T06:09:07.382Z,0
2016-11-28T06:10:18.362Z,0
2016-11-28T06:11:29.346Z,0
2016-11-28T06:12:40.326Z,0
2016-11-28T06:13:51.301Z,0
2016-11-28T06:15:02.330Z,0
2016-11-28T06:16:13.308Z,0
2016-11-28T06:17:24.497Z,0
2016-11-28T06:18:35.480Z,0
2016-11-28T06:19:46.655Z,0
2016-11-28T06:20:57.866Z,0
2016-11-28T06:22:08.859Z,0
2016-11-28T06:23:19.842Z,0
2016-11-28T06:24:31.027Z,0
2016-11-28T06:25:42.064Z,0
2016-11-28T06:26:53.045Z,0
2016-11-28T06:28:04.027Z,0
2016-11-28T06:29:15.010Z,0
2016-11-28T06:30:26.004Z,0
2016-11-28T06:31:36.981Z,0
2016-11-28T06:32:47.989Z,0
2016-11-28T06:33:58.971Z,0
2016-11-28T06:35:09.955Z,0
2016-11-28T06:36:20.944Z,0
2016-11-28T06:37:31.927Z,0
2016-11-28T06:38:42.910Z,0
2016-11-28T06:39:53.898Z,0
2016-11-28T06:41:05.337Z,0
2016-11-28T06:42:16.315Z,0
2016-11-28T06:43:27.286Z,0
2016-11-28T06:44:38.264Z,0
2016-11-28T06:45:49.245Z,0
2016-11-28T06:47:00.228Z,0
2016-11-28T06:48:11.208Z,0
2016-11-28T06:49:22.188Z,0
2016-11-28T06:50:33.221Z,0
2016-11-28T06:51:44.408Z,0
2016-11-28T06:52:55.384Z,0
2016-11-28T06:54:06.366Z,0
2016-11-28T06:55:17.340Z,5
2016-11-28T06:56:28.320Z,5
2016-11-28T06:57:39.507Z,5
2016-11-28T06:58:50.490Z,5
2016-11-28T07:00:01.471Z,5
2016-11-28T07:01:12.449Z,5
2016-11-28T07:02:23.434Z,10
2016-11-28T07:03:34.412Z,10
2016-11-28T07:04:45.591Z,10
2016-11-28T07:05:56.779Z,10
2016-11-28T07:07:07.755Z,10
2016-11-28T07:08:18.749Z,15
2016-11-28T07:09:29.726Z,15
2016-11-28T07:10:40.704Z,15
2016-11-28T07:11:51.682Z,20
2016-11-28T07:13:02.672Z,20
2016-11-28T07:14:13.652Z,20
2016-11-28T07:15:24.636Z,25
2016-11-28T07:16:35.818Z,25
2016-11-28T07:17:46.795Z,25
2016-11-28T07:18:57.767Z,30
2016-11-28T07:20:08.751Z,30
2016-11-28T07:21:19.940Z,35
2016-11-28T07:22:30.919Z,35
2016-11-28T07:23:41.900Z,40
2016-11-28T07:24:52.896Z,40
2016-11-28T07:26:03.874Z,45
2016-11-28T07:27:14.849Z,45
2016-11-28T07:28:25.829Z,50
2016-11-28T07:29:36.807Z,50
2016-11-28T07:30:47.817Z,55
2016-11-28T07:31:58.999Z,60
2016-11-28T07:33:10.177Z,60
2016-11-28T07:34:21.158Z,65
2016-11-28T07:35:32.138Z,65
2016-11-28T07:36:43.323Z,65
2016-11-28T07:37:54.300Z,70
2016-11-28T07:39:05.307Z,70
2016-11-28T07:40:16.293Z,75
2016-11-28T07:41:27.283Z,75
2016-11-28T07:42:38.288Z,80
2016-11-28T07:43:49.268Z,85
2016-11-28T07:45:00.280Z,85
2016-11-28T07:46:11.262Z,90
2016-11-28T07:47:22.446Z,95
2016-11-28T07:48:33.425Z,95
2016-11-28T07:49:44.402Z,100
2016-11-28T07:50:55.590Z,115
2016-11-28T07:52:06.567Z,160
2016-11-28T07:53:17.558Z,155
2016-11-28T07:54:28.541Z,120
2016-11-28T07:55:39.525Z,125
2016-11-28T07:56:50.504Z,160
2016-11-28T07:58:01.479Z,160
2016-11-28T07:59:12.463Z,125
2016-11-28T08:00:23.691Z,125
2016-11-28T08:01:34.679Z,185
2016-11-28T08:02:45.645Z,365
2016-11-28T08:03:56.632Z,425
2016-11-28T08:05:07.815Z,365
2016-11-28T08:06:18.796Z,240
2016-11-28T08:07:29.776Z,170
2016-11-28T08:08:40.758Z,195
2016-11-28T08:09:51.739Z,190
2016-11-28T08:11:02.727Z,200
2016-11-28T08:12:13.705Z,220
2016-11-28T08:13:24.681Z,220
2016-11-28T08:14:35.666Z,225
2016-11-28T08:15:46.648Z,265
2016-11-28T08:16:57.635Z,280
2016-11-28T08:18:08.653Z,345
2016-11-28T08:19:19.638Z,390
2016-11-28T08:20:30.626Z,350
2016-11-28T08:21:41.607Z,425
2016-11-28T08:22:52.592Z,555
2016-11-28T08:24:03.580Z,570
2016-11-28T08:25:14.561Z,575
2016-11-28T08:26:25.548Z,450
2016-11-28T08:27:36.538Z,210
2016-11-28T08:28:47.725Z,380
2016-11-28T08:29:58.940Z,665
2016-11-28T08:31:10.124Z,940
2016-11-28T08:32:21.113Z,1105
2016-11-28T08:33:32.295Z,1225
2016-11-28T08:34:43.482Z,1235
2016-11-28T08:35:54.468Z,1195
2016-11-28T08:37:05.451Z,1145
2016-11-28T08:38:16.439Z,1275
2016-11-28T08:39:27.416Z,1275
2016-11-28T08:40:38.398Z,985
2016-11-28T08:41:49.397Z,920
2016-11-28T08:43:00.381Z,845
2016-11-28T08:44:11.368Z,490
2016-11-28T08:45:22.561Z,470
2016-11-28T08:46:33.562Z,575
2016-11-28T08:47:44.586Z,690
2016-11-28T08:48:55.780Z,805
2016-11-28T08:50:06.781Z,1160
2016-11-28T08:51:17.982Z,995
2016-11-28T08:52:29.170Z,875
2016-11-28T08:53:40.155Z,1160
2016-11-28T08:54:51.149Z,1120
2016-11-28T08:56:02.334Z,920
2016-11-28T08:57:13.324Z,935
2016-11-28T08:58:24.322Z,1115
2016-11-28T08:59:35.334Z,1365
2016-11-28T09:00:46.328Z,1645
2016-11-28T09:01:57.346Z,1820
2016-11-28T09:03:08.541Z,1895
2016-11-28T09:04:19.529Z,1980
2016-11-28T09:05:30.561Z,1955
2016-11-28T09:06:41.746Z,1850
2016-11-28T09:07:52.730Z,1820
2016-11-28T09:09:03.720Z,1870
2016-11-28T09:10:14.719Z,1980
2016-11-28T09:11:25.712Z,2035
2016-11-28T09:12:36.905Z,2050
2016-11-28T09:13:48.100Z,2050
2016-11-28T09:14:59.092Z,2055
2016-11-28T09:16:10.076Z,2050
2016-11-28T09:17:21.068Z,1985
2016-11-28T09:18:32.263Z,1970
2016-11-28T09:19:43.459Z,2000
2016-11-28T09:20:54.450Z,2075
2016-11-28T09:22:05.444Z,2085
2016-11-28T09:23:16.434Z,2070
2016-11-28T09:24:27.432Z,2060
2016-11-28T09:25:38.438Z,2020
2016-11-28T09:26:49.431Z,2065
2016-11-28T09:28:00.428Z,2080
2016-11-28T09:29:11.430Z,2100
2016-11-28T09:30:22.426Z,2075
2016-11-28T09:31:33.421Z,2135
2016-11-28T09:32:44.423Z,2095
2016-11-28T09:33:55.628Z,2090
2016-11-28T09:35:06.643Z,2140
2016-11-28T09:36:17.648Z,2130
2016-11-28T09:37:28.649Z,2040
2016-11-28T09:38:39.644Z,2105
2016-11-28T09:39:50.647Z,2195
2016-11-28T09:41:01.701Z,2165
2016-11-28T09:42:12.906Z,2235
2016-11-28T09:43:24.106Z,2205
2016-11-28T09:44:35.109Z,2185
2016-11-28T09:45:46.105Z,2140
2016-11-28T09:46:57.105Z,2175
2016-11-28T09:48:08.110Z,2145
2016-11-28T09:49:19.108Z,2115
2016-11-28T09:50:30.156Z,2220
2016-11-28T09:51:41.151Z,2155
2016-11-28T09:52:52.348Z,2215
2016-11-28T09:54:03.558Z,2125
2016-11-28T09:55:14.770Z,2050
2016-11-28T09:56:26.005Z,2045
2016-11-28T09:57:37.006Z,2000
2016-11-28T09:58:48.006Z,2025
2016-11-28T09:59:59.010Z,2135
2016-11-28T10:01:10.008Z,2095
2016-11-28T10:02:21.015Z,2060
2016-11-28T10:03:32.022Z,2135
2016-11-28T10:04:43.025Z,2080
2016-11-28T10:05:54.023Z,2165
2016-11-28T10:07:05.225Z,2190
2016-11-28T10:08:16.441Z,2120
2016-11-28T10:09:27.441Z,2120
2016-11-28T10:10:38.443Z,2055
2016-11-28T10:11:49.445Z,2055
2016-11-28T10:13:00.471Z,2055
2016-11-28T10:14:11.665Z,2030
2016-11-28T10:15:22.673Z,1990
2016-11-28T10:16:33.680Z,2010
2016-11-28T10:17:44.676Z,2095
2016-11-28T10:18:55.679Z,2030
2016-11-28T10:20:06.674Z,1895
2016-11-28T10:21:17.678Z,1910
2016-11-28T10:22:28.879Z,2025
2016-11-28T10:23:40.087Z,2060
2016-11-28T10:24:51.303Z,2020
2016-11-28T10:26:02.303Z,2010
2016-11-28T10:27:13.302Z,1990
2016-11-28T10:28:24.309Z,1940
2016-11-28T10:29:35.308Z,1930
2016-11-28T10:30:46.313Z,2055
2016-11-28T10:31:57.510Z,2000
2016-11-28T10:33:08.512Z,1970
2016-11-28T10:34:19.516Z,1975
2016-11-28T10:35:30.720Z,2005
2016-11-28T10:36:41.718Z,1965
2016-11-28T10:37:52.716Z,1960
2016-11-28T10:39:03.920Z,1995
2016-11-28T10:40:15.114Z,1955
2016-11-28T10:41:26.139Z,1925
2016-11-28T10:42:37.142Z,1850
2016-11-28T10:43:48.142Z,1900
2016-11-28T10:44:59.347Z,1885
2016-11-28T10:46:10.352Z,1920
2016-11-28T10:47:21.352Z,1910
2016-11-28T10:48:32.355Z,1835
2016-11-28T10:49:43.352Z,1790
2016-11-28T10:50:54.758Z,1680
2016-11-28T10:52:05.755Z,1610
2016-11-28T10:53:16.760Z,1600
2016-11-28T10:54:27.959Z,1300
2016-11-28T10:55:38.968Z,1315
2016-11-28T10:56:49.963Z,1570
2016-11-28T10:58:00.959Z,1570
2016-11-28T10:59:11.954Z,1595
2016-11-28T11:00:22.954Z,1545
2016-11-28T11:01:33.946Z,1490
2016-11-28T11:02:45.143Z,1205
2016-11-28T11:04:11.459Z,1145
2016-11-28T11:05:22.460Z,1240
2016-11-28T11:06:33.475Z,1365
2016-11-28T11:07:44.497Z,1415
2016-11-28T11:08:55.496Z,1325
2016-11-28T11:10:06.499Z,1210
2016-11-28T11:11:17.540Z,1130
2016-11-28T11:12:28.547Z,1050
2016-11-28T11:13:39.751Z,1015
2016-11-28T11:14:50.750Z,570
2016-11-28T11:16:01.755Z,765
2016-11-28T11:17:12.754Z,1050
2016-11-28T11:18:23.952Z,965
2016-11-28T11:19:35.241Z,725
2016-11-28T11:20:46.250Z,1225
2016-11-28T11:21:57.645Z,1085
2016-11-28T11:23:08.642Z,1075
2016-11-28T11:24:19.647Z,1075
2016-11-28T11:25:30.636Z,835
2016-11-28T11:26:41.841Z,1000
2016-11-28T11:27:53.038Z,1160
2016-11-28T11:29:04.031Z,1185
2016-11-28T11:30:15.023Z,950
2016-11-28T11:31:26.057Z,730
2016-11-28T11:32:37.083Z,660
2016-11-28T11:33:48.081Z,540
2016-11-28T11:34:59.069Z,885
2016-11-28T11:36:10.062Z,1110
2016-11-28T11:37:21.051Z,1275
2016-11-28T11:38:32.038Z,1135
2016-11-28T11:39:43.033Z,930
2016-11-28T11:40:54.028Z,875
2016-11-28T11:42:05.015Z,655
2016-11-28T11:43:16.002Z,775
2016-11-28T11:44:26.990Z,815
2016-11-28T11:45:37.976Z,795
2016-11-28T11:46:48.976Z,635
2016-11-28T11:48:00.169Z,680
2016-11-28T11:49:11.362Z,900
2016-11-28T11:50:22.550Z,845
2016-11-28T11:51:33.551Z,830
2016-11-28T11:52:44.540Z,820
2016-11-28T11:53:55.535Z,855
2016-11-28T11:55:06.527Z,805
2016-11-28T11:56:17.553Z,655
2016-11-28T11:57:28.543Z,390
2016-11-28T11:58:39.532Z,210
2016-11-28T11:59:50.569Z,205
2016-11-28T12:01:01.605Z,260
2016-11-28T12:02:12.805Z,590
2016-11-28T12:03:23.792Z,855
2016-11-28T12:04:34.784Z,755
2016-11-28T12:05:45.776Z,550
2016-11-28T12:06:56.958Z,610
2016-11-28T12:08:07.942Z,610
2016-11-28T12:09:18.939Z,675
2016-11-28T12:10:29.929Z,505
2016-11-28T12:11:40.912Z,435
2016-11-28T12:12:51.897Z,465
2016-11-28T12:14:02.883Z,310
2016-11-28T12:15:13.897Z,420
2016-11-28T12:16:25.075Z,405
2016-11-28T12:17:36.085Z,255
2016-11-28T12:18:47.084Z,330
2016-11-28T12:19:58.067Z,540
2016-11-28T12:21:09.058Z,770
2016-11-28T12:22:20.250Z,890
2016-11-28T12:23:31.241Z,940
2016-11-28T12:24:42.232Z,920
2016-11-28T12:25:53.234Z,805
2016-11-28T12:27:04.218Z,825
2016-11-28T12:28:15.205Z,820
2016-11-28T12:29:26.402Z,820
2016-11-28T12:30:41.650Z,775
2016-11-28T12:31:52.636Z,770
2016-11-28T12:33:03.652Z,755
2016-11-28T12:34:14.839Z,675
2016-11-28T12:35:25.828Z,690
2016-11-28T12:36:36.817Z,670
2016-11-28T12:37:47.815Z,645
2016-11-28T12:38:58.806Z,620
2016-11-28T12:40:09.810Z,525
2016-11-28T12:41:20.797Z,525
2016-11-28T12:42:31.782Z,630
2016-11-28T12:43:42.968Z,620
2016-11-28T12:44:53.961Z,520
2016-11-28T12:46:04.946Z,570
2016-11-28T12:47:15.935Z,640
2016-11-28T12:48:26.923Z,590
2016-11-28T12:49:37.916Z,520
2016-11-28T12:50:48.906Z,435
2016-11-28T12:51:59.901Z,465
2016-11-28T12:53:10.885Z,390
2016-11-28T12:54:21.872Z,380
2016-11-28T12:55:32.866Z,495
2016-11-28T12:56:43.861Z,460
2016-11-28T12:57:54.846Z,300
2016-11-28T12:59:05.840Z,300
2016-11-28T13:00:16.828Z,330
2016-11-28T13:01:27.812Z,330
2016-11-28T13:02:38.810Z,425
2016-11-28T13:03:49.801Z,440
2016-11-28T13:05:00.788Z,450
2016-11-28T13:06:11.766Z,445
2016-11-28T13:07:22.752Z,470
2016-11-28T13:08:33.738Z,560
2016-11-28T13:09:44.717Z,475
2016-11-28T13:10:55.705Z,385
2016-11-28T13:12:06.696Z,335
2016-11-28T13:13:17.678Z,340
2016-11-28T13:14:28.663Z,350
2016-11-28T13:15:39.653Z,310
2016-11-28T13:16:50.645Z,245
2016-11-28T13:18:01.630Z,270
2016-11-28T13:19:12.618Z,215
2016-11-28T13:20:23.804Z,240
2016-11-28T13:21:34.800Z,265
2016-11-28T13:22:45.792Z,315
2016-11-28T13:23:56.770Z,270
2016-11-28T13:25:07.805Z,250
2016-11-28T13:26:18.794Z,280
2016-11-28T13:27:29.778Z,335
2016-11-28T13:28:40.760Z,365
2016-11-28T13:29:51.743Z,305
2016-11-28T13:31:02.719Z,260
2016-11-28T13:32:13.909Z,220
2016-11-28T13:33:24.916Z,230
2016-11-28T13:34:35.897Z,205
2016-11-28T13:35:46.886Z,280
2016-11-28T13:36:57.875Z,320
2016-11-28T13:38:08.862Z,305
2016-11-28T13:39:23.054Z,275
2016-11-28T13:40:34.137Z,245
2016-11-28T13:41:45.131Z,165
2016-11-28T13:42:56.114Z,140
2016-11-28T13:44:07.131Z,140
2016-11-28T13:45:18.122Z,140
2016-11-28T13:46:29.115Z,135
2016-11-28T13:47:40.116Z,140
2016-11-28T13:48:51.112Z,150
2016-11-28T13:50:02.096Z,150
2016-11-28T13:51:13.083Z,150
2016-11-28T13:52:24.064Z,150
2016-11-28T13:53:35.055Z,150
2016-11-28T13:54:46.267Z,150
2016-11-28T13:55:57.254Z,145
2016-11-28T13:57:08.472Z,135
2016-11-28T13:58:19.460Z,130
2016-11-28T13:59:30.446Z,140
2016-11-28T14:00:41.432Z,140
2016-11-28T14:01:52.625Z,140
2016-11-28T14:03:03.605Z,130
2016-11-28T14:04:14.592Z,120
2016-11-28T14:05:25.574Z,120
2016-11-28T14:06:36.558Z,120
2016-11-28T14:07:47.551Z,120
2016-11-28T14:08:58.534Z,120
2016-11-28T14:10:09.531Z,115
2016-11-28T14:11:20.545Z,115
2016-11-28T14:12:31.527Z,110
2016-11-28T14:13:42.513Z,110
2016-11-28T14:14:53.500Z,110
2016-11-28T14:16:04.680Z,110
2016-11-28T14:17:15.667Z,105
2016-11-28T14:18:26.650Z,105
2016-11-28T14:19:37.630Z,105
2016-11-28T14:20:48.820Z,100
2016-11-28T14:21:59.810Z,100
2016-11-28T14:23:10.809Z,100
2016-11-28T14:24:21.797Z,95
2016-11-28T14:25:32.781Z,95
2016-11-28T14:26:43.769Z,95
2016-11-28T14:27:58.258Z,90
2016-11-28T14:29:09.241Z,90
2016-11-28T14:30:20.226Z,90
2016-11-28T14:31:31.219Z,85
2016-11-28T14:32:42.744Z,85
2016-11-28T14:33:53.734Z,85
2016-11-28T14:35:04.973Z,80
2016-11-28T14:36:15.950Z,80
2016-11-28T14:37:26.956Z,75
2016-11-28T14:38:37.935Z,75
2016-11-28T14:39:48.925Z,75
2016-11-28T14:40:59.904Z,75
2016-11-28T14:42:10.889Z,75
2016-11-28T14:43:22.070Z,70
2016-11-28T14:44:33.049Z,70
2016-11-28T14:45:44.029Z,70
2016-11-28T14:46:55.205Z,65
2016-11-28T14:48:06.188Z,70
2016-11-28T14:49:17.169Z,65
2016-11-28T14:50:28.147Z,60
2016-11-28T14:51:39.127Z,60
2016-11-28T14:52:50.346Z,55
2016-11-28T14:54:01.323Z,55
2016-11-28T14:55:12.311Z,50
2016-11-28T14:56:23.300Z,50
2016-11-28T14:57:34.292Z,45
2016-11-28T14:58:45.268Z,45
2016-11-28T14:59:56.245Z,45
2016-11-28T15:01:07.228Z,40
2016-11-28T15:02:18.219Z,40
2016-11-28T15:03:29.206Z,40
2016-11-28T15:04:40.192Z,40
2016-11-28T15:05:51.174Z,35
2016-11-28T15:07:02.157Z,30
2016-11-28T15:08:13.140Z,30
2016-11-28T15:09:24.126Z,25
2016-11-28T15:10:35.152Z,25
2016-11-28T15:11:46.136Z,25
2016-11-28T15:12:57.128Z,20
2016-11-28T15:14:08.112Z,20
2016-11-28T15:15:19.089Z,20
2016-11-28T15:16:30.072Z,15
2016-11-28T15:17:41.056Z,15
2016-11-28T15:18:52.236Z,15
2016-11-28T15:20:03.222Z,15
2016-11-28T15:21:14.209Z,10
2016-11-28T15:22:25.203Z,10
2016-11-28T15:23:36.190Z,10
2016-11-28T15:24:47.367Z,10
2016-11-28T15:25:58.352Z,10
2016-11-28T15:27:09.349Z,5
2016-11-28T15:28:20.330Z,5
2016-11-28T15:29:31.515Z,5
2016-11-28T15:30:42.501Z,5
2016-11-28T15:31:53.484Z,5
2016-11-28T15:33:04.490Z,5
2016-11-28T15:34:15.474Z,0
2016-11-28T15:35:26.516Z,0
2016-11-28T15:36:37.499Z,0
2016-11-28T15:37:48.682Z,0
2016-11-28T15:38:59.661Z,0
2016-11-28T15:40:10.642Z,0
2016-11-28T15:41:21.616Z,0
2016-11-28T15:42:32.621Z,0
2016-11-28T15:43:43.612Z,0
2016-11-28T15:44:54.595Z,0
2016-11-28T15:46:05.774Z,0
2016-11-28T15:47:16.961Z,0
2016-11-28T15:48:28.151Z,0
2016-11-28T15:49:39.144Z,0
2016-11-28T15:50:50.128Z,0
2016-11-28T15:52:01.315Z,0
2016-11-28T15:53:12.317Z,0
2016-11-28T15:54:23.292Z,0
2016-11-28T15:55:34.483Z,0
2016-11-28T15:56:45.459Z,0
2016-11-28T15:57:56.435Z,0
2016-11-28T15:59:07.614Z,0
2016-11-28T16:00:18.604Z,0
2016-11-28T16:01:29.585Z,0
2016-11-28T16:02:40.567Z,0
2016-11-28T16:03:51.549Z,0
2016-11-28T16:05:02.579Z,0
2016-11-28T16:06:13.560Z,0
2016-11-28T16:07:24.540Z,0
2016-11-28T16:08:35.525Z,0
2016-11-28T16:09:46.708Z,0
2016-11-28T16:10:57.693Z,0
2016-11-28T16:12:08.876Z,0
2016-11-28T16:13:19.856Z,0
2016-11-28T16:14:30.839Z,0
2016-11-28T16:15:41.817Z,0
2016-11-28T16:16:52.800Z,0
2016-11-28T16:18:03.779Z,0
2016-11-28T16:19:14.760Z,0
2016-11-28T16:20:25.741Z,0
2016-11-28T16:21:36.712Z,0
2016-11-28T16:22:47.704Z,0
2016-11-28T16:23:58.691Z,0
2016-11-28T16:25:09.678Z,0
2016-11-28T16:26:20.662Z,0
2016-11-28T16:27:31.641Z,0
2016-11-28T16:28:42.629Z,0
2016-11-28T16:29:53.608Z,0
2016-11-28T16:31:04.596Z,0
2016-11-28T16:32:15.575Z,0
2016-11-28T16:33:26.773Z,0
2016-11-28T16:34:37.786Z,0
2016-11-28T16:35:48.780Z,0
2016-11-28T16:36:59.768Z,0
2016-11-28T16:38:10.755Z,0
2016-11-28T16:39:21.744Z,0
2016-11-28T16:40:32.723Z,0
2016-11-28T16:41:43.705Z,0
2016-11-28T16:42:54.691Z,0
2016-11-28T16:44:05.676Z,0
2016-11-28T16:45:16.665Z,0
2016-11-28T16:46:27.649Z,0
2016-11-28T16:47:38.627Z,0
2016-11-28T16:48:49.617Z,0
2016-11-28T16:50:00.606Z,0
2016-11-28T16:51:11.590Z,0
2016-11-28T16:52:22.571Z,0